sensor_id;sensor_type;location;lat;lon;timestamp;P1;durP1;ratioP1;P2;durP2;ratioP2
65471;SDS011;52068;50.710;14.492;2023-12-20T00:02:08;3.58;;;3.00;;
65471;SDS011;52068;50.710;14.492;2023-12-20T00:04:33;6.47;;;3.50;;
65471;SDS011;52068;50.710;14.492;2023-12-20T00:06:59;7.65;;;3.30;;
65471;SDS011;52068;50.710;14.492;2023-12-20T00:09:24;6.32;;;3.25;;
65471;SDS011;52068;50.710;14.492;2023-12-20T00:11:49;5.10;;;3.20;;
65471;SDS011;52068;50.710;14.492;2023-12-20T00:14:15;5.22;;;3.33;;
65471;SDS011;52068;50.710;14.492;2023-12-20T00:16:40;3.20;;;2.80;;
65471;SDS011;52068;50.710;14.492;2023-12-20T00:19:06;3.95;;;2.92;;
65471;SDS011;52068;50.710;14.492;2023-12-20T00:21:31;4.00;;;3.08;;
65471;SDS011;52068;50.710;14.492;2023-12-20T00:23:56;3.60;;;3.20;;
65471;SDS011;52068;50.710;14.492;2023-12-20T00:26:22;5.03;;;3.10;;
65471;SDS011;52068;50.710;14.492;2023-12-20T00:28:47;5.63;;;3.17;;
65471;SDS011;52068;50.710;14.492;2023-12-20T00:31:13;5.18;;;3.30;;
65471;SDS011;52068;50.710;14.492;2023-12-20T00:33:38;3.20;;;2.58;;
65471;SDS011;52068;50.710;14.492;2023-12-20T00:36:04;4.70;;;3.00;;
65471;SDS011;52068;50.710;14.492;2023-12-20T00:38:30;4.03;;;2.90;;
65471;SDS011;52068;50.710;14.492;2023-12-20T00:40:56;4.30;;;2.90;;
65471;SDS011;52068;50.710;14.492;2023-12-20T00:43:21;15.80;;;2.80;;
65471;SDS011;52068;50.710;14.492;2023-12-20T00:45:46;5.13;;;2.75;;
65471;SDS011;52068;50.710;14.492;2023-12-20T00:48:12;4.00;;;2.78;;
65471;SDS011;52068;50.710;14.492;2023-12-20T00:50:37;3.72;;;2.80;;
65471;SDS011;52068;50.710;14.492;2023-12-20T00:53:02;6.05;;;2.75;;
65471;SDS011;52068;50.710;14.492;2023-12-20T00:55:28;3.63;;;2.83;;
65471;SDS011;52068;50.710;14.492;2023-12-20T00:57:53;4.53;;;2.65;;
65471;SDS011;52068;50.710;14.492;2023-12-20T01:00:19;4.50;;;2.90;;
65471;SDS011;52068;50.710;14.492;2023-12-20T01:02:44;3.53;;;2.50;;
65471;SDS011;52068;50.710;14.492;2023-12-20T01:05:11;3.05;;;2.65;;
65471;SDS011;52068;50.710;14.492;2023-12-20T01:07:37;3.40;;;2.53;;
65471;SDS011;52068;50.710;14.492;2023-12-20T01:10:02;3.40;;;2.80;;
65471;SDS011;52068;50.710;14.492;2023-12-20T01:12:28;4.30;;;2.70;;
65471;SDS011;52068;50.710;14.492;2023-12-20T01:14:53;3.67;;;2.80;;
65471;SDS011;52068;50.710;14.492;2023-12-20T01:17:19;7.18;;;3.10;;
65471;SDS011;52068;50.710;14.492;2023-12-20T01:19:44;3.95;;;2.80;;
65471;SDS011;52068;50.710;14.492;2023-12-20T01:22:09;3.88;;;2.60;;
65471;SDS011;52068;50.710;14.492;2023-12-20T01:24:35;4.35;;;2.50;;
65471;SDS011;52068;50.710;14.492;2023-12-20T01:27:00;2.75;;;2.47;;
65471;SDS011;52068;50.710;14.492;2023-12-20T01:29:25;3.10;;;2.47;;
65471;SDS011;52068;50.710;14.492;2023-12-20T01:31:51;3.05;;;2.50;;
65471;SDS011;52068;50.710;14.492;2023-12-20T01:34:17;3.53;;;2.85;;
65471;SDS011;52068;50.710;14.492;2023-12-20T01:36:42;3.38;;;2.55;;
65471;SDS011;52068;50.710;14.492;2023-12-20T01:39:08;2.75;;;2.50;;
65471;SDS011;52068;50.710;14.492;2023-12-20T01:41:33;2.67;;;2.33;;
65471;SDS011;52068;50.710;14.492;2023-12-20T01:43:58;3.08;;;2.38;;
65471;SDS011;52068;50.710;14.492;2023-12-20T01:46:24;3.03;;;2.33;;
65471;SDS011;52068;50.710;14.492;2023-12-20T01:48:50;3.03;;;2.60;;
65471;SDS011;52068;50.710;14.492;2023-12-20T01:51:16;2.70;;;2.28;;
65471;SDS011;52068;50.710;14.492;2023-12-20T01:53:42;2.20;;;2.00;;
65471;SDS011;52068;50.710;14.492;2023-12-20T01:56:08;3.28;;;2.50;;
65471;SDS011;52068;50.710;14.492;2023-12-20T01:58:36;2.67;;;2.25;;
65471;SDS011;52068;50.710;14.492;2023-12-20T02:01:06;2.40;;;2.20;;
65471;SDS011;52068;50.710;14.492;2023-12-20T02:03:31;5.38;;;2.45;;
65471;SDS011;52068;50.710;14.492;2023-12-20T02:05:57;3.03;;;2.10;;
65471;SDS011;52068;50.710;14.492;2023-12-20T02:08:22;3.05;;;2.35;;
65471;SDS011;52068;50.710;14.492;2023-12-20T02:10:48;3.08;;;2.25;;
65471;SDS011;52068;50.710;14.492;2023-12-20T02:13:13;2.95;;;2.35;;
65471;SDS011;52068;50.710;14.492;2023-12-20T02:15:39;3.20;;;2.47;;
65471;SDS011;52068;50.710;14.492;2023-12-20T02:18:07;3.63;;;2.42;;
65471;SDS011;52068;50.710;14.492;2023-12-20T02:20:32;2.67;;;2.08;;
65471;SDS011;52068;50.710;14.492;2023-12-20T02:22:58;2.63;;;2.38;;
65471;SDS011;52068;50.710;14.492;2023-12-20T02:25:23;2.60;;;2.35;;
65471;SDS011;52068;50.710;14.492;2023-12-20T02:27:48;3.00;;;2.50;;
65471;SDS011;52068;50.710;14.492;2023-12-20T02:30:14;2.80;;;2.35;;
65471;SDS011;52068;50.710;14.492;2023-12-20T02:32:40;3.53;;;2.17;;
65471;SDS011;52068;50.710;14.492;2023-12-20T02:35:05;2.83;;;2.00;;
65471;SDS011;52068;50.710;14.492;2023-12-20T02:37:32;2.58;;;2.10;;
65471;SDS011;52068;50.710;14.492;2023-12-20T02:39:58;2.22;;;2.00;;
65471;SDS011;52068;50.710;14.492;2023-12-20T02:42:23;2.75;;;2.00;;
65471;SDS011;52068;50.710;14.492;2023-12-20T02:44:48;3.30;;;2.20;;
65471;SDS011;52068;50.710;14.492;2023-12-20T02:47:14;3.75;;;1.92;;
65471;SDS011;52068;50.710;14.492;2023-12-20T02:49:39;2.10;;;1.90;;
65471;SDS011;52068;50.710;14.492;2023-12-20T02:52:04;3.15;;;2.30;;
65471;SDS011;52068;50.710;14.492;2023-12-20T02:54:30;2.85;;;2.28;;
65471;SDS011;52068;50.710;14.492;2023-12-20T02:56:55;2.42;;;1.98;;
65471;SDS011;52068;50.710;14.492;2023-12-20T02:59:21;3.97;;;2.40;;
65471;SDS011;52068;50.710;14.492;2023-12-20T03:01:46;3.38;;;2.30;;
65471;SDS011;52068;50.710;14.492;2023-12-20T03:04:12;2.30;;;2.10;;
65471;SDS011;52068;50.710;14.492;2023-12-20T03:06:38;2.80;;;2.30;;
65471;SDS011;52068;50.710;14.492;2023-12-20T03:09:03;3.70;;;2.20;;
65471;SDS011;52068;50.710;14.492;2023-12-20T03:11:29;2.13;;;1.90;;
65471;SDS011;52068;50.710;14.492;2023-12-20T03:13:55;2.35;;;2.10;;
65471;SDS011;52068;50.710;14.492;2023-12-20T03:16:21;2.55;;;2.35;;
65471;SDS011;52068;50.710;14.492;2023-12-20T03:18:46;2.55;;;1.90;;
65471;SDS011;52068;50.710;14.492;2023-12-20T03:21:11;2.60;;;2.30;;
65471;SDS011;52068;50.710;14.492;2023-12-20T03:23:37;2.25;;;2.05;;
65471;SDS011;52068;50.710;14.492;2023-12-20T03:26:02;2.30;;;2.03;;
65471;SDS011;52068;50.710;14.492;2023-12-20T03:28:29;1.90;;;1.75;;
65471;SDS011;52068;50.710;14.492;2023-12-20T03:30:54;4.57;;;2.00;;
65471;SDS011;52068;50.710;14.492;2023-12-20T03:33:20;3.22;;;2.00;;
65471;SDS011;52068;50.710;14.492;2023-12-20T03:35:45;2.72;;;2.20;;
65471;SDS011;52068;50.710;14.492;2023-12-20T03:38:10;2.78;;;2.17;;
65471;SDS011;52068;50.710;14.492;2023-12-20T03:40:36;3.67;;;2.00;;
65471;SDS011;52068;50.710;14.492;2023-12-20T03:43:01;2.60;;;2.10;;
65471;SDS011;52068;50.710;14.492;2023-12-20T03:45:27;2.20;;;1.98;;
65471;SDS011;52068;50.710;14.492;2023-12-20T03:47:52;2.15;;;1.88;;
65471;SDS011;52068;50.710;14.492;2023-12-20T03:50:24;2.35;;;2.00;;
65471;SDS011;52068;50.710;14.492;2023-12-20T03:52:50;2.00;;;1.83;;
65471;SDS011;52068;50.710;14.492;2023-12-20T03:55:15;2.22;;;1.92;;
65471;SDS011;52068;50.710;14.492;2023-12-20T03:57:41;2.17;;;1.80;;
65471;SDS011;52068;50.710;14.492;2023-12-20T04:00:10;2.20;;;2.00;;
65471;SDS011;52068;50.710;14.492;2023-12-20T04:02:36;3.33;;;2.10;;
65471;SDS011;52068;50.710;14.492;2023-12-20T04:05:02;2.38;;;2.17;;
65471;SDS011;52068;50.710;14.492;2023-12-20T04:07:27;4.35;;;2.25;;
65471;SDS011;52068;50.710;14.492;2023-12-20T04:09:53;2.10;;;1.90;;
65471;SDS011;52068;50.710;14.492;2023-12-20T04:12:18;2.58;;;1.60;;
65471;SDS011;52068;50.710;14.492;2023-12-20T04:14:43;2.38;;;2.10;;
65471;SDS011;52068;50.710;14.492;2023-12-20T04:17:09;2.15;;;1.75;;
65471;SDS011;52068;50.710;14.492;2023-12-20T04:19:34;2.53;;;2.13;;
65471;SDS011;52068;50.710;14.492;2023-12-20T04:22:00;2.00;;;1.80;;
65471;SDS011;52068;50.710;14.492;2023-12-20T04:24:25;3.03;;;1.77;;
65471;SDS011;52068;50.710;14.492;2023-12-20T04:26:50;2.08;;;1.88;;
65471;SDS011;52068;50.710;14.492;2023-12-20T04:29:16;3.30;;;1.77;;
65471;SDS011;52068;50.710;14.492;2023-12-20T04:31:42;7.18;;;2.00;;
65471;SDS011;52068;50.710;14.492;2023-12-20T04:34:07;1.90;;;1.77;;
65471;SDS011;52068;50.710;14.492;2023-12-20T04:36:32;2.58;;;1.90;;
65471;SDS011;52068;50.710;14.492;2023-12-20T04:38:58;2.40;;;1.80;;
65471;SDS011;52068;50.710;14.492;2023-12-20T04:41:24;2.45;;;1.92;;
65471;SDS011;52068;50.710;14.492;2023-12-20T04:43:50;7.82;;;2.10;;
65471;SDS011;52068;50.710;14.492;2023-12-20T04:46:15;3.95;;;1.83;;
65471;SDS011;52068;50.710;14.492;2023-12-20T04:48:40;2.10;;;1.83;;
65471;SDS011;52068;50.710;14.492;2023-12-20T04:51:06;2.17;;;1.67;;
65471;SDS011;52068;50.710;14.492;2023-12-20T04:53:31;2.90;;;1.85;;
65471;SDS011;52068;50.710;14.492;2023-12-20T04:55:57;3.13;;;1.70;;
65471;SDS011;52068;50.710;14.492;2023-12-20T04:58:22;3.25;;;1.60;;
65471;SDS011;52068;50.710;14.492;2023-12-20T05:00:47;3.25;;;1.83;;
65471;SDS011;52068;50.710;14.492;2023-12-20T05:03:13;1.92;;;1.73;;
65471;SDS011;52068;50.710;14.492;2023-12-20T05:05:38;3.42;;;2.22;;
65471;SDS011;52068;50.710;14.492;2023-12-20T05:08:04;3.28;;;2.00;;
65471;SDS011;52068;50.710;14.492;2023-12-20T05:10:29;1.98;;;1.60;;
65471;SDS011;52068;50.710;14.492;2023-12-20T05:12:55;2.00;;;1.70;;
65471;SDS011;52068;50.710;14.492;2023-12-20T05:15:20;1.45;;;1.35;;
65471;SDS011;52068;50.710;14.492;2023-12-20T05:17:46;4.43;;;2.25;;
65471;SDS011;52068;50.710;14.492;2023-12-20T05:20:11;1.67;;;1.58;;
65471;SDS011;52068;50.710;14.492;2023-12-20T05:22:36;1.95;;;1.80;;
65471;SDS011;52068;50.710;14.492;2023-12-20T05:25:02;1.90;;;1.70;;
65471;SDS011;52068;50.710;14.492;2023-12-20T05:27:27;1.60;;;1.50;;
65471;SDS011;52068;50.710;14.492;2023-12-20T05:29:53;2.22;;;1.75;;
65471;SDS011;52068;50.710;14.492;2023-12-20T05:32:22;3.78;;;1.80;;
65471;SDS011;52068;50.710;14.492;2023-12-20T05:34:48;1.90;;;1.70;;
65471;SDS011;52068;50.710;14.492;2023-12-20T05:37:13;2.17;;;1.70;;
65471;SDS011;52068;50.710;14.492;2023-12-20T05:39:39;3.85;;;1.95;;
65471;SDS011;52068;50.710;14.492;2023-12-20T05:42:04;3.38;;;1.63;;
65471;SDS011;52068;50.710;14.492;2023-12-20T05:44:30;2.78;;;1.63;;
65471;SDS011;52068;50.710;14.492;2023-12-20T05:46:55;2.72;;;1.83;;
65471;SDS011;52068;50.710;14.492;2023-12-20T05:49:20;2.13;;;1.83;;
65471;SDS011;52068;50.710;14.492;2023-12-20T05:51:46;3.58;;;1.77;;
65471;SDS011;52068;50.710;14.492;2023-12-20T05:54:12;2.38;;;1.70;;
65471;SDS011;52068;50.710;14.492;2023-12-20T05:56:38;2.90;;;1.77;;
65471;SDS011;52068;50.710;14.492;2023-12-20T05:59:03;1.70;;;1.60;;
65471;SDS011;52068;50.710;14.492;2023-12-20T06:01:29;5.75;;;1.67;;
65471;SDS011;52068;50.710;14.492;2023-12-20T06:03:54;2.58;;;1.65;;
65471;SDS011;52068;50.710;14.492;2023-12-20T06:06:19;1.92;;;1.67;;
65471;SDS011;52068;50.710;14.492;2023-12-20T06:08:45;3.97;;;1.60;;
65471;SDS011;52068;50.710;14.492;2023-12-20T06:11:10;2.55;;;1.55;;
65471;SDS011;52068;50.710;14.492;2023-12-20T06:13:36;6.07;;;1.70;;
65471;SDS011;52068;50.710;14.492;2023-12-20T06:16:01;11.00;;;2.20;;
65471;SDS011;52068;50.710;14.492;2023-12-20T06:18:26;3.10;;;1.60;;
65471;SDS011;52068;50.710;14.492;2023-12-20T06:20:52;3.15;;;1.83;;
65471;SDS011;52068;50.710;14.492;2023-12-20T06:23:17;2.30;;;1.60;;
65471;SDS011;52068;50.710;14.492;2023-12-20T06:25:43;11.88;;;1.80;;
65471;SDS011;52068;50.710;14.492;2023-12-20T06:28:09;2.28;;;1.52;;
65471;SDS011;52068;50.710;14.492;2023-12-20T06:30:35;1.77;;;1.58;;
65471;SDS011;52068;50.710;14.492;2023-12-20T06:33:02;2.22;;;1.50;;
65471;SDS011;52068;50.710;14.492;2023-12-20T06:35:27;6.00;;;1.75;;
65471;SDS011;52068;50.710;14.492;2023-12-20T06:37:53;5.07;;;1.70;;
65471;SDS011;52068;50.710;14.492;2023-12-20T06:40:18;2.28;;;1.70;;
65471;SDS011;52068;50.710;14.492;2023-12-20T06:42:44;2.17;;;1.80;;
65471;SDS011;52068;50.710;14.492;2023-12-20T06:45:11;3.00;;;1.70;;
65471;SDS011;52068;50.710;14.492;2023-12-20T06:47:37;3.30;;;1.55;;
65471;SDS011;52068;50.710;14.492;2023-12-20T06:50:03;1.85;;;1.50;;
65471;SDS011;52068;50.710;14.492;2023-12-20T06:52:28;1.85;;;1.50;;
65471;SDS011;52068;50.710;14.492;2023-12-20T06:54:54;3.58;;;1.83;;
65471;SDS011;52068;50.710;14.492;2023-12-20T06:57:19;2.78;;;1.27;;
65471;SDS011;52068;50.710;14.492;2023-12-20T06:59:45;3.20;;;1.67;;
65471;SDS011;52068;50.710;14.492;2023-12-20T07:02:10;2.17;;;1.63;;
65471;SDS011;52068;50.710;14.492;2023-12-20T07:04:39;2.95;;;1.60;;
65471;SDS011;52068;50.710;14.492;2023-12-20T07:07:05;2.97;;;1.50;;
65471;SDS011;52068;50.710;14.492;2023-12-20T07:09:30;3.08;;;1.60;;
65471;SDS011;52068;50.710;14.492;2023-12-20T07:11:56;7.07;;;1.80;;
65471;SDS011;52068;50.710;14.492;2023-12-20T07:14:21;8.85;;;1.67;;
65471;SDS011;52068;50.710;14.492;2023-12-20T07:16:46;2.72;;;1.73;;
65471;SDS011;52068;50.710;14.492;2023-12-20T07:19:12;3.60;;;1.60;;
65471;SDS011;52068;50.710;14.492;2023-12-20T07:21:38;4.70;;;1.40;;
65471;SDS011;52068;50.710;14.492;2023-12-20T07:24:03;3.97;;;1.58;;
65471;SDS011;52068;50.710;14.492;2023-12-20T07:26:29;2.80;;;1.88;;
65471;SDS011;52068;50.710;14.492;2023-12-20T07:28:54;16.83;;;1.70;;
65471;SDS011;52068;50.710;14.492;2023-12-20T07:31:19;3.83;;;1.65;;
65471;SDS011;52068;50.710;14.492;2023-12-20T07:33:45;2.00;;;1.50;;
65471;SDS011;52068;50.710;14.492;2023-12-20T07:36:10;1.52;;;1.40;;
65471;SDS011;52068;50.710;14.492;2023-12-20T07:38:37;4.22;;;1.60;;
65471;SDS011;52068;50.710;14.492;2023-12-20T07:41:02;3.63;;;1.60;;
65471;SDS011;52068;50.710;14.492;2023-12-20T07:43:28;3.88;;;1.50;;
65471;SDS011;52068;50.710;14.492;2023-12-20T07:45:53;3.63;;;1.80;;
65471;SDS011;52068;50.710;14.492;2023-12-20T07:48:19;2.55;;;1.55;;
65471;SDS011;52068;50.710;14.492;2023-12-20T07:50:44;5.20;;;1.67;;
65471;SDS011;52068;50.710;14.492;2023-12-20T07:53:09;5.32;;;2.25;;
65471;SDS011;52068;50.710;14.492;2023-12-20T07:55:35;5.47;;;2.38;;
65471;SDS011;52068;50.710;14.492;2023-12-20T07:58:00;8.85;;;3.22;;
65471;SDS011;52068;50.710;14.492;2023-12-20T08:00:26;7.45;;;2.45;;
65471;SDS011;52068;50.710;14.492;2023-12-20T08:02:52;9.75;;;3.17;;
65471;SDS011;52068;50.710;14.492;2023-12-20T08:05:17;5.40;;;2.40;;
65471;SDS011;52068;50.710;14.492;2023-12-20T08:07:43;5.72;;;2.42;;
65471;SDS011;52068;50.710;14.492;2023-12-20T08:10:08;5.40;;;2.60;;
65471;SDS011;52068;50.710;14.492;2023-12-20T08:12:34;7.30;;;2.47;;
65471;SDS011;52068;50.710;14.492;2023-12-20T08:14:59;7.30;;;2.45;;
65471;SDS011;52068;50.710;14.492;2023-12-20T08:17:26;10.57;;;3.03;;
65471;SDS011;52068;50.710;14.492;2023-12-20T08:19:51;10.32;;;2.67;;
65471;SDS011;52068;50.710;14.492;2023-12-20T08:22:17;6.72;;;3.00;;
65471;SDS011;52068;50.710;14.492;2023-12-20T08:24:42;5.45;;;2.60;;
65471;SDS011;52068;50.710;14.492;2023-12-20T08:27:07;6.45;;;2.65;;
65471;SDS011;52068;50.710;14.492;2023-12-20T08:29:34;6.03;;;2.70;;
65471;SDS011;52068;50.710;14.492;2023-12-20T08:32:00;6.63;;;2.95;;
65471;SDS011;52068;50.710;14.492;2023-12-20T08:34:25;6.05;;;2.67;;
65471;SDS011;52068;50.710;14.492;2023-12-20T08:36:50;7.60;;;2.70;;
65471;SDS011;52068;50.710;14.492;2023-12-20T08:39:18;6.07;;;2.53;;
65471;SDS011;52068;50.710;14.492;2023-12-20T08:41:44;5.80;;;2.40;;
65471;SDS011;52068;50.710;14.492;2023-12-20T08:44:09;5.68;;;2.70;;
65471;SDS011;52068;50.710;14.492;2023-12-20T08:46:35;5.32;;;2.42;;
65471;SDS011;52068;50.710;14.492;2023-12-20T08:49:01;6.90;;;2.75;;
65471;SDS011;52068;50.710;14.492;2023-12-20T08:51:27;5.18;;;2.38;;
65471;SDS011;52068;50.710;14.492;2023-12-20T08:53:52;6.03;;;2.30;;
65471;SDS011;52068;50.710;14.492;2023-12-20T08:56:18;5.28;;;2.60;;
65471;SDS011;52068;50.710;14.492;2023-12-20T08:58:44;6.97;;;2.42;;
65471;SDS011;52068;50.710;14.492;2023-12-20T09:01:09;3.97;;;2.42;;
65471;SDS011;52068;50.710;14.492;2023-12-20T09:03:35;6.50;;;2.65;;
65471;SDS011;52068;50.710;14.492;2023-12-20T09:06:00;6.00;;;2.60;;
65471;SDS011;52068;50.710;14.492;2023-12-20T09:08:26;6.05;;;2.85;;
65471;SDS011;52068;50.710;14.492;2023-12-20T09:10:51;5.30;;;2.53;;
65471;SDS011;52068;50.710;14.492;2023-12-20T09:13:17;5.60;;;2.80;;
65471;SDS011;52068;50.710;14.492;2023-12-20T09:15:42;5.10;;;2.42;;
65471;SDS011;52068;50.710;14.492;2023-12-20T09:18:07;6.20;;;2.40;;
65471;SDS011;52068;50.710;14.492;2023-12-20T09:20:33;4.75;;;2.50;;
65471;SDS011;52068;50.710;14.492;2023-12-20T09:22:59;6.68;;;2.75;;
65471;SDS011;52068;50.710;14.492;2023-12-20T09:25:24;11.30;;;3.28;;
65471;SDS011;52068;50.710;14.492;2023-12-20T09:27:51;6.15;;;2.50;;
65471;SDS011;52068;50.710;14.492;2023-12-20T09:30:17;6.18;;;2.70;;
65471;SDS011;52068;50.710;14.492;2023-12-20T09:32:43;5.78;;;2.40;;
65471;SDS011;52068;50.710;14.492;2023-12-20T09:35:08;5.30;;;2.40;;
65471;SDS011;52068;50.710;14.492;2023-12-20T09:37:34;7.78;;;2.28;;
65471;SDS011;52068;50.710;14.492;2023-12-20T09:39:59;3.33;;;2.15;;
65471;SDS011;52068;50.710;14.492;2023-12-20T09:42:29;4.70;;;2.20;;
65471;SDS011;52068;50.710;14.492;2023-12-20T09:45:16;3.78;;;2.33;;
65471;SDS011;52068;50.710;14.492;2023-12-20T09:47:45;3.78;;;2.35;;
65471;SDS011;52068;50.710;14.492;2023-12-20T09:50:11;3.95;;;2.30;;
65471;SDS011;52068;50.710;14.492;2023-12-20T09:52:37;5.80;;;2.20;;
65471;SDS011;52068;50.710;14.492;2023-12-20T09:55:04;4.72;;;2.17;;
65471;SDS011;52068;50.710;14.492;2023-12-20T09:57:33;7.35;;;2.17;;
65471;SDS011;52068;50.710;14.492;2023-12-20T09:59:59;6.57;;;2.25;;
65471;SDS011;52068;50.710;14.492;2023-12-20T10:02:24;3.30;;;2.13;;
65471;SDS011;52068;50.710;14.492;2023-12-20T10:04:54;5.15;;;2.60;;
65471;SDS011;52068;50.710;14.492;2023-12-20T10:07:20;6.05;;;2.17;;
65471;SDS011;52068;50.710;14.492;2023-12-20T10:09:47;3.90;;;1.95;;
65471;SDS011;52068;50.710;14.492;2023-12-20T10:12:12;4.50;;;2.50;;
65471;SDS011;52068;50.710;14.492;2023-12-20T10:14:41;4.07;;;1.80;;
65471;SDS011;52068;50.710;14.492;2023-12-20T10:17:06;4.55;;;2.20;;
65471;SDS011;52068;50.710;14.492;2023-12-20T10:19:32;4.60;;;1.92;;
65471;SDS011;52068;50.710;14.492;2023-12-20T10:22:00;5.78;;;1.98;;
65471;SDS011;52068;50.710;14.492;2023-12-20T10:24:29;2.78;;;2.05;;
65471;SDS011;52068;50.710;14.492;2023-12-20T10:27:01;4.47;;;2.17;;
65471;SDS011;52068;50.710;14.492;2023-12-20T10:29:31;4.38;;;1.92;;
65471;SDS011;52068;50.710;14.492;2023-12-20T10:31:58;3.80;;;1.77;;
65471;SDS011;52068;50.710;14.492;2023-12-20T10:34:23;5.60;;;2.58;;
65471;SDS011;52068;50.710;14.492;2023-12-20T10:36:49;4.93;;;2.42;;
65471;SDS011;52068;50.710;14.492;2023-12-20T10:39:15;2.05;;;1.77;;
65471;SDS011;52068;50.710;14.492;2023-12-20T10:41:40;4.65;;;2.30;;
65471;SDS011;52068;50.710;14.492;2023-12-20T10:44:08;6.15;;;1.88;;
65471;SDS011;52068;50.710;14.492;2023-12-20T10:46:34;3.85;;;1.90;;
65471;SDS011;52068;50.710;14.492;2023-12-20T10:49:02;3.80;;;2.10;;
65471;SDS011;52068;50.710;14.492;2023-12-20T10:51:28;4.22;;;1.88;;
65471;SDS011;52068;50.710;14.492;2023-12-20T10:53:55;3.80;;;1.70;;
65471;SDS011;52068;50.710;14.492;2023-12-20T10:56:21;4.82;;;1.90;;
65471;SDS011;52068;50.710;14.492;2023-12-20T10:58:48;5.03;;;2.15;;
65471;SDS011;52068;50.710;14.492;2023-12-20T11:01:15;3.75;;;1.98;;
65471;SDS011;52068;50.710;14.492;2023-12-20T11:03:51;2.45;;;1.60;;
65471;SDS011;52068;50.710;14.492;2023-12-20T11:06:25;3.15;;;1.52;;
65471;SDS011;52068;50.710;14.492;2023-12-20T11:11:56;2.65;;;1.92;;
65471;SDS011;52068;50.710;14.492;2023-12-20T11:14:48;3.55;;;1.42;;
65471;SDS011;52068;50.710;14.492;2023-12-20T11:17:15;2.33;;;1.58;;
65471;SDS011;52068;50.710;14.492;2023-12-20T11:22:26;2.45;;;1.75;;
65471;SDS011;52068;50.710;14.492;2023-12-20T11:25:02;2.90;;;1.58;;
65471;SDS011;52068;50.710;14.492;2023-12-20T11:27:43;2.47;;;1.80;;
65471;SDS011;52068;50.710;14.492;2023-12-20T11:30:10;2.30;;;1.50;;
65471;SDS011;52068;50.710;14.492;2023-12-20T11:32:36;2.15;;;1.35;;
65471;SDS011;52068;50.710;14.492;2023-12-20T11:37:37;2.47;;;1.55;;
65471;SDS011;52068;50.710;14.492;2023-12-20T11:42:40;3.13;;;1.95;;
65471;SDS011;52068;50.710;14.492;2023-12-20T11:45:19;1.80;;;1.55;;
65471;SDS011;52068;50.710;14.492;2023-12-20T11:47:47;3.35;;;1.50;;
65471;SDS011;52068;50.710;14.492;2023-12-20T11:50:19;2.50;;;1.63;;
65471;SDS011;52068;50.710;14.492;2023-12-20T11:52:45;1.98;;;1.30;;
65471;SDS011;52068;50.710;14.492;2023-12-20T11:55:11;2.58;;;1.48;;
65471;SDS011;52068;50.710;14.492;2023-12-20T11:57:37;3.28;;;1.55;;
65471;SDS011;52068;50.710;14.492;2023-12-20T12:00:03;2.45;;;1.40;;
65471;SDS011;52068;50.710;14.492;2023-12-20T12:02:30;2.42;;;1.50;;
65471;SDS011;52068;50.710;14.492;2023-12-20T12:04:55;1.98;;;1.20;;
65471;SDS011;52068;50.710;14.492;2023-12-20T12:07:21;2.55;;;1.50;;
65471;SDS011;52068;50.710;14.492;2023-12-20T12:09:47;2.10;;;1.50;;
65471;SDS011;52068;50.710;14.492;2023-12-20T12:12:13;2.03;;;1.30;;
65471;SDS011;52068;50.710;14.492;2023-12-20T12:14:39;2.65;;;1.40;;
65471;SDS011;52068;50.710;14.492;2023-12-20T12:17:14;2.70;;;1.52;;
65471;SDS011;52068;50.710;14.492;2023-12-20T12:19:40;2.15;;;1.38;;
65471;SDS011;52068;50.710;14.492;2023-12-20T12:22:13;2.20;;;1.45;;
65471;SDS011;52068;50.710;14.492;2023-12-20T12:24:41;2.83;;;1.25;;
65471;SDS011;52068;50.710;14.492;2023-12-20T12:27:07;2.80;;;1.60;;
65471;SDS011;52068;50.710;14.492;2023-12-20T12:29:33;4.90;;;1.42;;
65471;SDS011;52068;50.710;14.492;2023-12-20T12:31:59;2.35;;;1.20;;
65471;SDS011;52068;50.710;14.492;2023-12-20T12:34:28;1.98;;;1.40;;
65471;SDS011;52068;50.710;14.492;2023-12-20T12:36:54;1.70;;;1.33;;
65471;SDS011;52068;50.710;14.492;2023-12-20T12:39:19;2.72;;;1.23;;
65471;SDS011;52068;50.710;14.492;2023-12-20T12:41:44;8.98;;;1.30;;
65471;SDS011;52068;50.710;14.492;2023-12-20T12:44:10;5.57;;;1.80;;
65471;SDS011;52068;50.710;14.492;2023-12-20T12:46:35;1.58;;;1.20;;
65471;SDS011;52068;50.710;14.492;2023-12-20T12:49:01;1.60;;;1.23;;
65471;SDS011;52068;50.710;14.492;2023-12-20T12:51:26;2.78;;;1.60;;
65471;SDS011;52068;50.710;14.492;2023-12-20T12:53:53;4.38;;;1.40;;
65471;SDS011;52068;50.710;14.492;2023-12-20T12:56:18;2.78;;;1.42;;
65471;SDS011;52068;50.710;14.492;2023-12-20T12:58:44;1.40;;;1.30;;
65471;SDS011;52068;50.710;14.492;2023-12-20T13:01:10;1.88;;;1.35;;
65471;SDS011;52068;50.710;14.492;2023-12-20T13:03:35;1.48;;;1.20;;
65471;SDS011;52068;50.710;14.492;2023-12-20T13:06:01;3.67;;;1.30;;
65471;SDS011;52068;50.710;14.492;2023-12-20T13:08:26;1.42;;;1.00;;
65471;SDS011;52068;50.710;14.492;2023-12-20T13:10:53;2.63;;;1.30;;
65471;SDS011;52068;50.710;14.492;2023-12-20T13:13:19;1.98;;;1.30;;
65471;SDS011;52068;50.710;14.492;2023-12-20T13:15:44;2.63;;;1.50;;
65471;SDS011;52068;50.710;14.492;2023-12-20T13:18:17;1.63;;;1.17;;
65471;SDS011;52068;50.710;14.492;2023-12-20T13:20:45;2.03;;;1.02;;
65471;SDS011;52068;50.710;14.492;2023-12-20T13:23:11;2.33;;;1.08;;
65471;SDS011;52068;50.710;14.492;2023-12-20T13:25:36;2.40;;;1.02;;
65471;SDS011;52068;50.710;14.492;2023-12-20T13:28:02;2.40;;;1.40;;
65471;SDS011;52068;50.710;14.492;2023-12-20T13:30:30;2.20;;;1.20;;
65471;SDS011;52068;50.710;14.492;2023-12-20T13:32:56;1.77;;;1.15;;
65471;SDS011;52068;50.710;14.492;2023-12-20T13:35:21;1.30;;;1.20;;
65471;SDS011;52068;50.710;14.492;2023-12-20T13:37:46;4.88;;;1.33;;
65471;SDS011;52068;50.710;14.492;2023-12-20T13:40:12;1.75;;;1.15;;
65471;SDS011;52068;50.710;14.492;2023-12-20T13:42:37;1.45;;;1.02;;
65471;SDS011;52068;50.710;14.492;2023-12-20T13:45:06;1.38;;;1.27;;
65471;SDS011;52068;50.710;14.492;2023-12-20T13:47:33;4.60;;;1.20;;
65471;SDS011;52068;50.710;14.492;2023-12-20T13:50:00;3.08;;;1.27;;
65471;SDS011;52068;50.710;14.492;2023-12-20T13:52:26;2.03;;;1.42;;
65471;SDS011;52068;50.710;14.492;2023-12-20T13:54:51;1.48;;;1.23;;
65471;SDS011;52068;50.710;14.492;2023-12-20T13:57:16;1.10;;;1.00;;
65471;SDS011;52068;50.710;14.492;2023-12-20T13:59:42;2.30;;;1.10;;
65471;SDS011;52068;50.710;14.492;2023-12-20T14:02:08;1.73;;;1.10;;
65471;SDS011;52068;50.710;14.492;2023-12-20T14:04:33;2.05;;;1.10;;
65471;SDS011;52068;50.710;14.492;2023-12-20T14:06:58;1.25;;;1.15;;
65471;SDS011;52068;50.710;14.492;2023-12-20T14:09:24;1.50;;;1.00;;
65471;SDS011;52068;50.710;14.492;2023-12-20T14:11:50;2.95;;;1.25;;
65471;SDS011;52068;50.710;14.492;2023-12-20T14:14:15;1.92;;;1.20;;
65471;SDS011;52068;50.710;14.492;2023-12-20T14:16:40;2.33;;;1.30;;
65471;SDS011;52068;50.710;14.492;2023-12-20T14:19:08;1.70;;;1.20;;
65471;SDS011;52068;50.710;14.492;2023-12-20T14:21:34;1.90;;;1.10;;
65471;SDS011;52068;50.710;14.492;2023-12-20T14:24:00;1.17;;;1.05;;
65471;SDS011;52068;50.710;14.492;2023-12-20T14:26:25;3.20;;;1.20;;
65471;SDS011;52068;50.710;14.492;2023-12-20T14:28:52;2.50;;;1.33;;
65471;SDS011;52068;50.710;14.492;2023-12-20T14:31:18;2.63;;;1.30;;
65471;SDS011;52068;50.710;14.492;2023-12-20T14:33:43;1.67;;;0.98;;
65471;SDS011;52068;50.710;14.492;2023-12-20T14:36:09;1.13;;;1.00;;
65471;SDS011;52068;50.710;14.492;2023-12-20T14:38:34;1.30;;;0.70;;